Latest Weather Observations for Hopetoun Airport

IDV60801

Issued at 6:05 pm EST Monday 22 September 2014 (issued every 30 minutes, with the page automatically refreshed every 10 minutes)

About weather observations | Map of weather stations | Latest weather observations for VIC | Other Formats
Station Details ID: 077010 Name: HOPETOUN AIRPORT Lat: -35.72 Lon: 142.36 Height: 77.3 m
Data from the previous 72 hours. | See also: Recent months at Hopetoun Airport
Date/Time
EST
Temp
°C
App
Temp
°C
Dew
Point
Rel
Hum
%
Delta-T
°C
Wind Press
QNH
hPa
Press
MSL
hPa
Rain
since 9 am
mm
Dir
 
Spd
km/h
Gust
km/h
Spd
kts
Gust
kts
22/06:00pm 22.6 17.8 -2.2 19 10.7 ENE 13 17 7 9 1023.8 1023.8 0.0
22/05:30pm 24.4 18.8 -3.0 16 11.8 ENE 17 24 9 13 1023.6 1023.6 0.0
22/05:00pm 25.2 20.3 -0.8 18 11.8 NE 15 22 8 12 1023.5 1023.5 0.0
22/04:30pm 25.3 19.4 -2.3 16 12.2 NE 19 26 10 14 1023.6 1023.6 0.0
22/04:00pm 25.4 20.0 -1.4 17 12.0 NNE 17 22 9 12 1023.7 1023.7 0.0
22/03:30pm 25.3 21.0 -1.5 17 12.1 NE 11 19 6 10 1023.9 1023.9 0.0
22/03:00pm 24.9 19.2 -1.0 18 11.7 N 19 33 10 18 1024.3 1024.3 0.0
22/02:30pm 25.1 20.0 -1.6 17 12.0 NE 15 24 8 13 1024.7 1024.7 0.0
22/02:00pm 24.4 19.8 -0.7 19 11.3 NNE 13 22 7 12 1025.1 1025.2 0.0
22/01:30pm 23.4 17.7 0.5 22 10.5 NNE 20 30 11 16 1025.5 1025.6 0.0
22/01:00pm 23.1 18.8 0.9 23 10.2 NE 13 22 7 12 1026.0 1026.1 0.0
22/12:30pm 22.7 18.0 1.1 24 10.0 NNE 15 26 8 14 1026.5 1026.6 0.0
22/12:00pm 22.6 18.6 2.7 27 9.4 NNE 13 24 7 13 1026.9 1027.0 0.0
22/11:30am 22.2 18.0 3.8 30 8.9 NE 15 22 8 12 1027.5 1027.6 0.0
22/11:00am 20.6 16.3 3.3 32 8.2 NE 15 26 8 14 1028.1 1028.2 0.0
22/10:30am 19.6 15.9 4.5 37 7.3 NNE 13 20 7 11 1028.5 1028.6 0.0
22/10:00am 18.7 14.4 5.2 41 6.5 NE 17 24 9 13 1028.7 1028.8 0.0
22/09:30am 17.1 12.9 5.7 47 5.5 NE 17 22 9 12 1029.0 1029.1 0.0
22/09:00am 14.9 11.1 5.7 54 4.4 NE 15 19 8 10 1029.2 1029.3 0.0
22/08:30am 13.1 9.6 5.5 60 3.6 ENE 13 17 7 9 1029.3 1029.4 0.0
22/08:00am 10.9 7.0 5.4 69 2.5 ENE 15 19 8 10 1029.2 1029.3 0.0
22/07:30am 8.2 4.5 4.4 77 1.7 ENE 13 17 7 9 1028.9 1029.0 0.0
22/07:00am 6.2 2.7 3.7 84 1.1 E 11 15 6 8 1028.6 1028.7 0.0
22/06:30am 4.6 0.9 2.6 87 0.8 E 11 13 6 7 1028.4 1028.5 0.0
22/06:00am 4.1 0.3 1.8 85 0.9 E 11 13 6 7 1028.1 1028.2 0.0
22/05:30am 3.9 0.1 1.6 85 0.9 E 11 13 6 7 1027.8 1027.9 0.0
22/05:00am 1.9 -2.4 -1.9 76 1.3 E 11 13 6 7 1027.6 1027.7 0.0
22/04:30am 4.9 1.7 0.7 74 1.6 ESE 7 9 4 5 1027.5 1027.6 0.0
22/04:00am 4.1 0.8 0.1 75 1.5 ESE 7 9 4 5 1027.3 1027.4 0.0
22/03:30am 3.6 0.2 -0.6 74 1.6 ESE 7 7 4 4 1027.4 1027.5 0.0
22/03:00am 4.9 2.2 0.3 72 1.8 SSE 4 7 2 4 1027.6 1027.7 0.0
22/02:30am 4.0 1.1 -1.2 69 1.9 ESE 4 6 2 3 1027.8 1027.9 0.0
22/02:00am 4.3 1.3 -1.7 65 2.2 ESE 4 6 2 3 1027.9 1028.0 0.0
22/01:30am 6.7 4.1 0.8 66 2.3 SE 4 6 2 3 1028.3 1028.4 0.0
22/01:00am 5.6 3.1 -1.1 62 2.5 ESE 2 2 1 1 1028.5 1028.6 0.0
22/12:30am 5.5 3.3 -1.4 61 2.6 CALM 0 0 0 0 1028.6 1028.7 0.0
22/12:00am 6.1 2.9 -0.8 61 2.6 E 6 7 3 4 1028.5 1028.6 0.0
 
Date/Time
EST
Temp
°C
App
Temp
°C
Dew
Point
Rel
Hum
%
Delta-T
°C
Wind Press
QNH
hPa
Press
MSL
hPa
Rain
since 9 am
mm
Dir
 
Spd
km/h
Gust
km/h
Spd
kts
Gust
kts
21/11:30pm 8.1 4.0 -0.1 56 3.2 ESE 11 13 6 7 1028.6 1028.7 0.0
21/11:00pm 9.4 5.4 0.3 53 3.6 ESE 11 13 6 7 1028.8 1028.9 0.0
21/10:30pm 9.5 5.4 -0.1 51 3.8 ESE 11 15 6 8 1028.7 1028.8 0.0
21/10:00pm 11.9 7.1 0.4 45 4.7 SE 15 20 8 11 1028.6 1028.7 0.0
21/09:30pm 12.2 7.7 0.0 43 5.0 SE 13 17 7 9 1028.6 1028.7 0.0
21/09:00pm 12.7 8.2 -0.2 41 5.3 SSE 13 15 7 8 1028.4 1028.5 0.0
21/08:30pm 12.8 8.5 -1.5 37 5.7 SE 11 13 6 7 1028.3 1028.4 0.0
21/08:00pm 14.0 10.0 -2.0 33 6.4 SSE 9 11 5 6 1028.0 1028.1 0.0
21/07:30pm 14.8 11.8 -1.7 32 6.7 SSE 4 6 2 3 1027.8 1027.9 0.0
21/07:00pm 17.4 14.1 -1.3 28 7.8 SE 6 7 3 4 1027.5 1027.6 0.0
21/06:30pm 17.9 14.6 -1.3 27 8.1 SE 6 7 3 4 1027.3 1027.4 0.0
21/06:00pm 20.0 17.0 -1.7 23 9.2 SE 4 7 2 4 1027.1 1027.2 0.0
21/05:30pm 21.1 17.6 -1.4 22 9.8 SSE 7 15 4 8 1026.9 1027.0 0.0
21/05:00pm 21.4 18.2 -0.6 23 9.7 S 6 11 3 6 1027.0 1027.1 0.0
21/04:30pm 21.7 18.2 -1.6 21 10.2 SE 7 15 4 8 1027.3 1027.4 0.0
21/04:00pm 21.5 18.1 -0.5 23 9.7 S 7 13 4 7 1027.5 1027.6 0.0
21/03:30pm 21.5 17.7 -0.5 23 9.8 SE 9 17 5 9 1027.6 1027.7 0.0
21/03:00pm 21.2 17.9 0.4 25 9.3 S 7 17 4 9 1028.0 1028.1 0.0
21/02:30pm 20.9 16.9 0.2 25 9.3 SSW 11 20 6 11 1028.4 1028.5 0.0
21/02:00pm 20.5 16.6 0.9 27 8.8 SSW 11 19 6 10 1028.8 1028.9 0.0
21/01:30pm 19.8 16.7 1.3 29 8.4 S 7 17 4 9 1029.2 1029.3 0.0
21/01:00pm 19.4 17.0 2.3 32 7.8 NE 4 9 2 5 1029.7 1029.7 0.0
21/12:30pm 18.3 15.6 2.6 35 7.2 E 6 11 3 6 1030.1 1030.1 0.0
21/12:00pm 17.2 14.5 2.4 37 6.7 ESE 6 13 3 7 1030.5 1030.5 0.0
21/11:30am 16.3 13.4 2.7 40 6.2 SSE 7 15 4 8 1030.9 1030.9 0.0
21/11:00am 15.8 12.3 3.3 43 5.7 SSE 11 19 6 10 1031.2 1031.2 0.0
21/10:30am 15.4 12.4 3.9 46 5.3 SE 9 15 5 8 1031.6 1031.6 0.0
21/10:00am 14.3 11.4 4.6 52 4.5 ESE 9 17 5 9 1031.8 1031.8 0.0
21/09:30am 13.1 9.4 4.5 56 4.0 SE 13 19 7 10 1031.9 1031.9 0.0
21/09:00am 11.7 7.4 5.1 64 3.0 ESE 17 24 9 13 1031.8 1031.8 0.0
21/08:30am 9.9 5.5 4.5 69 2.4 ESE 17 24 9 13 1031.7 1031.7 0.0
21/08:00am 8.0 4.6 4.2 77 1.6 SE 11 17 6 9 1031.4 1031.4 0.0
21/07:30am 5.3 2.7 3.2 86 0.9 SSE 6 9 3 5 1031.1 1031.1 0.0
21/07:00am 2.0 0.2 1.1 94 0.3 CALM 0 2 0 1 1031.0 1031.0 0.0
21/06:30am 0.5 -2.0 -0.8 91 0.5 SSW 2 4 1 2 1030.8 1030.8 0.0
21/06:00am 3.0 0.5 1.5 90 0.6 SSE 4 7 2 4 1030.2 1030.2 0.0
21/05:30am 3.8 0.4 2.0 88 0.7 SE 9 13 5 7 1029.8 1029.8 0.0
21/05:00am 5.0 0.7 3.0 87 0.8 SE 15 19 8 10 1029.5 1029.6 0.0
21/04:30am 6.0 1.4 3.5 84 1.1 SE 17 24 9 13 1029.2 1029.3 0.0
21/04:00am 5.8 1.2 3.5 85 1.0 SE 17 22 9 12 1029.0 1029.1 0.0
21/03:30am 5.0 1.0 2.7 85 0.9 SSE 13 17 7 9 1028.8 1028.9 0.0
21/03:00am 5.4 1.4 3.1 85 0.9 SSE 13 17 7 9 1028.8 1028.9 0.0
21/02:30am 5.2 1.6 2.7 84 1.0 SSE 11 15 6 8 1028.8 1028.9 0.0
21/02:00am 5.9 2.2 2.5 79 1.4 SE 11 13 6 7 1029.1 1029.2 0.0
21/01:30am 6.0 2.7 2.5 78 1.4 SE 9 11 5 6 1029.3 1029.4 0.0
21/01:00am 6.8 3.6 2.9 76 1.6 SE 9 13 5 7 1029.4 1029.5 0.0
21/12:30am 7.3 3.6 2.6 72 2.0 SE 11 15 6 8 1029.5 1029.6 0.0
21/12:00am 7.8 3.8 2.9 71 2.1 SSE 13 15 7 8 1029.7 1029.7 0.0
 
Date/Time
EST
Temp
°C
App
Temp
°C
Dew
Point
Rel
Hum
%
Delta-T
°C
Wind Press
QNH
hPa
Press
MSL
hPa
Rain
since 9 am
mm
Dir
 
Spd
km/h
Gust
km/h
Spd
kts
Gust
kts
20/11:30pm 7.6 4.0 2.7 71 2.1 SSE 11 15 6 8 1029.5 1029.6 0.0
20/11:00pm 7.9 4.2 2.4 68 2.3 SSE 11 13 6 7 1029.4 1029.5 0.0
20/10:30pm 8.8 5.1 2.4 64 2.7 SSE 11 13 6 7 1029.3 1029.4 0.0
20/10:00pm 9.9 6.3 2.7 61 3.1 SSE 11 15 6 8 1029.3 1029.4 0.0
20/09:30pm 11.2 6.4 2.8 56 3.7 SE 17 20 9 11 1029.0 1029.1 0.0
20/09:00pm 12.0 7.6 2.5 52 4.1 SE 15 20 8 11 1028.8 1028.9 0.0
20/08:30pm 12.8 8.3 2.1 48 4.7 SE 15 19 8 10 1028.5 1028.6 0.0
20/08:00pm 12.9 8.6 1.3 45 4.9 SSE 13 15 7 8 1028.2 1028.3 0.0
20/07:30pm 13.7 10.1 0.7 41 5.5 SSE 9 13 5 7 1027.9 1028.0 0.0
20/07:00pm 15.8 12.2 0.8 36 6.5 S 9 11 5 6 1027.4 1027.5 0.0
20/06:30pm 16.7 13.1 0.8 34 7.0 S 9 15 5 8 1027.0 1027.1 0.0
20/06:00pm 18.1 13.8 0.7 31 7.6 SSE 13 19 7 10 1026.7 1026.8 0.0
20/05:30pm 18.9 14.1 0.5 29 8.2 S 15 20 8 11 1026.4 1026.5 0.0
20/05:00pm 19.2 14.8 0.3 28 8.3 S 13 22 7 12 1026.1 1026.2 0.0
20/04:30pm 19.5 14.4 0.5 28 8.5 S 17 28 9 15 1025.9 1026.0 0.0
20/04:00pm 19.4 14.9 -0.1 27 8.5 S 13 19 7 10 1025.8 1025.9 0.0
20/03:30pm 19.4 15.6 -0.6 26 8.7 S 9 22 5 12 1025.7 1025.8 0.0
20/03:00pm 19.8 15.4 0.3 27 8.6 S 13 24 7 13 1025.7 1025.8 0.0
20/02:30pm 19.3 15.7 0.4 28 8.4 S 9 19 5 10 1025.9 1026.0 0.0
20/02:00pm 18.4 15.2 0.5 30 7.9 S 7 19 4 10 1026.1 1026.2 0.0
20/01:30pm 18.8 15.3 1.3 31 7.9 SE 9 26 5 14 1026.2 1026.3 0.0
20/01:00pm 17.5 14.0 1.1 33 7.2 SSW 9 19 5 10 1026.7 1026.8 0.0
20/12:30pm 17.7 14.0 2.1 35 7.1 S 11 22 6 12 1027.3 1027.4 0.0
20/12:00pm 16.3 12.2 2.0 38 6.4 SSW 13 24 7 13 1027.8 1027.9 0.0
20/11:30am 16.1 13.3 2.9 41 6.0 S 7 19 4 10 1028.1 1028.2 0.0
20/11:00am 16.1 13.5 4.2 45 5.5 S 7 20 4 11 1028.6 1028.7 0.0
20/10:30am 14.3 10.4 3.5 48 4.9 SE 13 19 7 10 1028.9 1029.0 0.0
20/10:00am 13.7 9.6 4.3 53 4.3 SE 15 22 8 12 1029.0 1029.1 0.0
20/09:30am 12.8 8.8 4.8 58 3.7 ESE 15 19 8 10 1029.0 1029.1 0.0
20/09:00am 11.4 8.2 5.3 66 2.8 E 11 17 6 9 1028.8 1028.9 0.0
20/08:30am 9.7 7.3 5.3 74 2.0 ESE 7 11 4 6 1028.7 1028.8 0.0
20/08:00am 8.3 5.9 5.2 81 1.4 SE 7 11 4 6 1028.4 1028.5 0.0
20/07:30am 6.1 3.5 4.4 89 0.7 SE 7 9 4 5 1028.1 1028.2 0.0
20/07:00am 3.8 0.9 2.8 93 0.4 SSE 7 9 4 5 1027.8 1027.9 0.0
20/06:30am 2.9 -0.5 2.0 94 0.4 SE 9 11 5 6 1027.2 1027.3 0.0
20/06:00am 2.3 -0.7 1.1 92 0.5 SSE 6 7 3 4 1026.8 1026.9 0.0
20/05:30am 2.8 -0.1 1.6 92 0.5 SE 6 7 3 4 1026.3 1026.4 0.0
20/05:00am 2.9 -0.1 1.7 92 0.5 SE 7 9 4 5 1025.6 1025.7 0.0
20/04:30am 2.6 -0.3 1.6 93 0.4 SE 6 7 3 4 1025.5 1025.6 0.0
20/04:00am 1.5 -1.9 -0.4 87 0.7 ESE 7 7 4 4 1025.2 1025.3 0.0
20/03:30am 4.6 1.7 2.8 88 0.7 SE 7 11 4 6 1025.3 1025.4 0.0
20/03:00am 5.0 1.8 2.9 86 0.9 SE 9 13 5 7 1025.3 1025.4 0.0
20/02:30am 5.2 1.6 2.9 85 0.9 ESE 11 15 6 8 1025.3 1025.4 0.0
20/02:00am 5.9 2.3 2.9 81 1.2 SE 11 15 6 8 1025.6 1025.7 0.0
20/01:30am 6.7 2.0 3.0 77 1.6 SE 17 22 9 12 1025.7 1025.8 0.0
20/01:00am 7.6 2.5 3.3 74 1.8 SE 19 24 10 13 1025.5 1025.6 0.0
20/12:30am 7.5 2.7 2.4 70 2.1 SSE 17 20 9 11 1025.4 1025.5 0.0
20/12:00am 7.4 2.8 1.5 66 2.4 SSE 15 19 8 10 1025.4 1025.5 0.0
 
Date/Time
EST
Temp
°C
App
Temp
°C
Dew
Point
Rel
Hum
%
Delta-T
°C
Wind Press
QNH
hPa
Press
MSL
hPa
Rain
since 9 am
mm
Dir
 
Spd
km/h
Gust
km/h
Spd
kts
Gust
kts
19/11:30pm 7.1 3.1 0.8 64 2.5 SE 11 13 6 7 1025.4 1025.5 0.0
19/11:00pm 7.1 3.5 0.3 62 2.7 SSE 9 11 5 6 1025.5 1025.6 0.0
19/10:30pm 6.8 3.0 -0.6 59 2.8 S 9 13 5 7 1025.5 1025.6 0.0
19/10:00pm 7.4 3.4 -2.1 51 3.5 S 9 11 5 6 1025.5 1025.6 0.0
19/09:30pm 9.3 5.9 -0.3 51 3.8 S 7 11 4 6 1025.6 1025.7 0.0
19/09:00pm 10.4 6.7 -0.1 48 4.2 SSE 9 11 5 6 1025.3 1025.4 0.0
19/08:30pm 12.0 8.3 0.1 44 4.9 S 9 11 5 6 1025.2 1025.3 0.0
19/08:00pm 11.8 8.4 -0.4 43 4.9 S 7 9 4 5 1025.2 1025.3 0.0
19/07:30pm 10.8 7.4 -0.9 44 4.7 SW 7 9 4 5 1024.8 1024.8 0.0
19/07:00pm 11.5 7.7 -0.9 42 4.9 WSW 9 11 5 6 1024.6 1024.6 0.0
19/06:30pm 13.9 9.8 -0.2 38 5.9 SW 11 15 6 8 1024.3 1024.3 0.0

Other Formats:

Comma delimited format used in spreadsheet applications
http://www.bom.gov.au/fwo/IDV60801/IDV60801.94838.axf

JavaScript Object Notation format (JSON) in row-major order
http://www.bom.gov.au/fwo/IDV60801/IDV60801.94838.json